Main page
METAR-TAF:

METAR-TAF

Airports :

East Midlands Airport

East Midlands, England

latitude: 52-50N, longitude: 001-20W, elevation: 94 m

Current weather observation

The report was made 44 minutes ago, at 04:50 UTC
Wind 1 kt from variable directions
Temperature 17°C
Humidity 94%
Pressure 1016 hPa
Visibility 10 km or more
Few clouds at a height of 4500 ft

METAR: EGNX 230450Z VRB01KT 9999 FEW045 17/16 Q1016

Time: 06:34 (05:34 UTC)

Forecast

The report was made 6 hours and 33 minutes ago, at 23:01 UTC
Forecast valid from 23 at 00 UTC to 23 at 24 UTC
Wind 5 kt from variable directions
Visibility 10 km or more
Few clouds at a height of 4000 ft

TAF: EGNX 222301Z 2300/2324 VRB05KT 9999 FEW040

Weather observations and forecasts of more than 4000 airports (METAR and TAF reports).

The available stations are represented by yellow and red dots on the map.

Hover mouse over dot to see the name of the station.

Then click to see weather observations and forecasts.

To change the map : click on the green buttons with a black cross to zoom in, on the green button with a dash to zoom out, or on the green arrows for adjacent maps.


METAR-TAF: